createdAt,value
2023-04-17T00:02:17.100Z,7.66
2023-04-17T00:04:45.612Z,7.65
2023-04-17T00:07:13.940Z,7.76
2023-04-17T00:09:44.459Z,7.62
2023-04-17T00:12:13.231Z,7.71
2023-04-17T00:14:41.543Z,7.62
2023-04-17T00:17:10.366Z,7.58
2023-04-17T00:19:39.039Z,7.56
2023-04-17T00:22:06.757Z,7.54
2023-04-17T00:24:35.049Z,7.55
2023-04-17T00:27:03.460Z,7.48
2023-04-17T00:29:34.375Z,7.42
2023-04-17T00:32:02.240Z,7.44
2023-04-17T00:34:30.049Z,7.47
2023-04-17T00:36:59.649Z,7.46
2023-04-17T00:39:27.547Z,7.33
2023-04-17T00:41:56.753Z,7.24
2023-04-17T00:44:24.918Z,7.20
2023-04-17T00:46:52.674Z,7.14
2023-04-17T00:49:20.926Z,7.09
2023-04-17T00:51:50.573Z,7.14
2023-04-17T00:54:19.543Z,7.13
2023-04-17T00:56:47.742Z,7.04
2023-04-17T00:59:18.139Z,7.02
2023-04-17T01:01:46.840Z,7.07
2023-04-17T01:04:15.372Z,7.00
2023-04-17T01:06:43.496Z,6.99
2023-04-17T01:09:11.971Z,7.01
2023-04-17T01:11:40.416Z,6.84
2023-04-17T01:14:08.436Z,6.79
2023-04-17T01:16:40.846Z,6.67
2023-04-17T01:19:08.584Z,6.77
2023-04-17T01:21:36.833Z,6.64
2023-04-17T01:24:06.501Z,6.65
2023-04-17T01:26:35.301Z,6.60
2023-04-17T01:29:04.443Z,6.53
2023-04-17T01:31:33.495Z,6.56
2023-04-17T01:34:01.969Z,6.64
2023-04-17T01:36:31.973Z,6.55
2023-04-17T01:38:59.687Z,6.48
2023-04-17T01:41:27.793Z,6.42
2023-04-17T01:43:55.803Z,6.40
2023-04-17T01:46:24.157Z,6.37
2023-04-17T01:48:52.770Z,6.50
2023-04-17T01:51:20.829Z,6.47
2023-04-17T01:53:50.729Z,6.51
2023-04-17T01:56:19.051Z,6.52
2023-04-17T01:58:47.126Z,6.50
2023-04-17T02:01:16.568Z,6.47
2023-04-17T02:03:44.746Z,6.46
2023-04-17T02:06:13.710Z,6.33
2023-04-17T02:08:42.257Z,6.28
2023-04-17T02:11:10.547Z,6.19
2023-04-17T02:13:38.957Z,6.21
2023-04-17T02:16:07.961Z,6.33
2023-04-17T02:18:36.251Z,6.29
2023-04-17T02:21:03.872Z,6.41
2023-04-17T02:23:32.668Z,6.37
2023-04-17T02:26:00.177Z,6.40
2023-04-17T02:28:28.402Z,6.26
2023-04-17T02:30:56.469Z,6.38
2023-04-17T02:33:24.228Z,6.42
2023-04-17T02:35:52.312Z,6.35
2023-04-17T02:38:25.528Z,6.50
2023-04-17T02:40:53.233Z,6.44
2023-04-17T02:43:21.732Z,6.38
2023-04-17T02:45:51.615Z,6.41
2023-04-17T02:48:20.408Z,6.47
2023-04-17T02:50:50.345Z,6.47
2023-04-17T02:53:20.923Z,6.50
2023-04-17T02:55:50.547Z,6.51
2023-04-17T02:58:21.259Z,6.45
2023-04-17T03:00:49.243Z,6.52
2023-04-17T03:03:19.050Z,6.43
2023-04-17T03:05:47.673Z,6.43
2023-04-17T03:08:15.766Z,6.64
2023-04-17T03:10:48.938Z,6.65
2023-04-17T03:13:17.263Z,6.51
2023-04-17T03:15:45.044Z,6.73
2023-04-17T03:18:13.274Z,7.17
2023-04-17T03:20:41.414Z,7.22
2023-04-17T03:23:09.311Z,7.65
2023-04-17T03:25:37.417Z,7.81
2023-04-17T03:28:05.335Z,7.72
2023-04-17T03:30:34.615Z,7.93
2023-04-17T03:33:07.486Z,7.93
2023-04-17T03:35:35.207Z,8.07
2023-04-17T03:38:07.410Z,8.28
2023-04-17T03:40:35.663Z,8.38
2023-04-17T03:43:03.424Z,8.69
2023-04-17T03:45:32.791Z,8.90
2023-04-17T03:48:00.727Z,8.42
2023-04-17T03:50:29.966Z,9.04
2023-04-17T03:52:58.427Z,8.71
2023-04-17T03:55:28.639Z,9.27
2023-04-17T03:57:56.474Z,9.38
2023-04-17T04:00:26.259Z,9.33
2023-04-17T04:03:00.157Z,9.97
2023-04-17T04:05:33.783Z,9.69
2023-04-17T04:08:02.038Z,9.57
2023-04-17T04:10:36.337Z,9.67
2023-04-17T04:13:04.055Z,9.98
2023-04-17T04:15:32.525Z,9.81
2023-04-17T04:18:03.930Z,10.67
2023-04-17T04:20:32.853Z,10.50
2023-04-17T04:23:19.015Z,11.32
2023-04-17T04:25:50.043Z,10.93
2023-04-17T04:28:44.787Z,11.18
2023-04-17T04:31:31.066Z,10.83
2023-04-17T04:34:02.708Z,11.25
2023-04-17T04:36:34.370Z,11.09
2023-04-17T04:39:12.382Z,11.26
2023-04-17T04:41:46.509Z,11.74
2023-04-17T04:44:20.198Z,11.53
2023-04-17T04:46:50.887Z,11.56
2023-04-17T04:49:18.646Z,12.02
2023-04-17T04:51:47.257Z,11.87
2023-04-17T04:54:15.029Z,11.64
2023-04-17T04:56:53.278Z,11.92
2023-04-17T04:59:22.227Z,12.00
2023-04-17T05:01:58.699Z,12.27
2023-04-17T05:04:27.791Z,12.62
2023-04-17T05:07:00.298Z,11.90
2023-04-17T05:09:32.310Z,12.05
2023-04-17T05:12:00.138Z,12.32
2023-04-17T05:14:29.173Z,12.54
2023-04-17T05:16:59.210Z,11.88
2023-04-17T05:19:30.949Z,11.87
2023-04-17T05:22:02.568Z,11.20
2023-04-17T05:24:35.027Z,10.82
2023-04-17T05:27:03.181Z,11.15
2023-04-17T05:29:34.118Z,10.82
2023-04-17T05:32:05.764Z,11.32
2023-04-17T05:34:52.646Z,11.31
2023-04-17T05:37:24.687Z,10.98
2023-04-17T05:39:52.400Z,11.10
2023-04-17T05:42:20.181Z,10.80
2023-04-17T05:44:50.604Z,11.36
2023-04-17T05:47:19.655Z,11.04
2023-04-17T05:49:49.033Z,11.03
2023-04-17T05:52:16.765Z,11.43
2023-04-17T05:54:45.415Z,11.46
2023-04-17T05:57:13.490Z,11.62
2023-04-17T05:59:41.570Z,11.35
2023-04-17T06:02:11.032Z,11.27
2023-04-17T06:04:40.631Z,11.31
2023-04-17T06:07:10.697Z,11.60
2023-04-17T06:09:38.640Z,11.66
2023-04-17T06:12:06.582Z,11.65
2023-04-17T06:14:34.728Z,11.91
2023-04-17T06:17:06.917Z,11.97
2023-04-17T06:19:34.694Z,12.11
2023-04-17T06:22:03.045Z,12.39
2023-04-17T06:24:30.908Z,12.48
2023-04-17T06:26:58.909Z,12.66
2023-04-17T06:29:27.534Z,12.64
2023-04-17T06:31:55.680Z,12.60
2023-04-17T06:34:23.640Z,12.72
2023-04-17T06:36:51.938Z,12.75
2023-04-17T06:39:20.063Z,13.01
2023-04-17T06:41:48.988Z,12.98
2023-04-17T06:44:26.931Z,12.74
2023-04-17T06:46:56.843Z,12.82
2023-04-17T06:49:25.139Z,12.67
2023-04-17T06:51:53.065Z,13.26
2023-04-17T06:54:20.889Z,13.13
2023-04-17T06:56:49.658Z,13.31
2023-04-17T06:59:18.612Z,13.36
2023-04-17T07:01:47.272Z,13.94
2023-04-17T07:04:17.914Z,13.45
2023-04-17T07:06:50.482Z,13.74
2023-04-17T07:09:19.589Z,13.94
2023-04-17T07:11:48.625Z,13.67
2023-04-17T07:14:16.420Z,13.38
2023-04-17T07:16:45.191Z,13.57
2023-04-17T07:19:14.062Z,13.72
2023-04-17T07:21:41.919Z,13.72
2023-04-17T07:24:12.560Z,13.76
2023-04-17T07:26:40.641Z,13.90
2023-04-17T07:29:08.806Z,13.89
2023-04-17T07:31:37.659Z,14.02
2023-04-17T07:34:05.702Z,14.04
2023-04-17T07:36:33.814Z,13.94
2023-04-17T07:39:01.876Z,13.93
2023-04-17T07:41:29.813Z,14.20
2023-04-17T07:43:59.065Z,14.32
2023-04-17T07:46:27.329Z,14.27
2023-04-17T07:48:55.662Z,14.23
2023-04-17T07:54:12.350Z,14.48
2023-04-17T07:56:40.945Z,14.35
2023-04-17T07:59:10.644Z,14.35
2023-04-17T08:01:39.475Z,14.60
2023-04-17T08:04:08.091Z,14.64
2023-04-17T08:06:37.308Z,14.47
2023-04-17T08:09:05.060Z,14.54
2023-04-17T08:11:42.736Z,14.57
2023-04-17T08:14:20.760Z,14.90
2023-04-17T08:16:48.581Z,15.10
2023-04-17T08:19:17.056Z,15.11
2023-04-17T08:21:46.794Z,15.04
2023-04-17T08:24:15.467Z,15.00
2023-04-17T08:26:45.057Z,15.41
2023-04-17T08:29:13.109Z,15.26
2023-04-17T08:31:41.472Z,15.39
2023-04-17T08:34:14.741Z,15.33
2023-04-17T08:36:44.906Z,15.34
2023-04-17T08:39:15.322Z,15.19
2023-04-17T08:41:47.588Z,15.47
2023-04-17T08:44:28.782Z,15.65
2023-04-17T08:47:02.687Z,15.70
2023-04-17T08:49:30.890Z,15.58
2023-04-17T08:51:59.030Z,15.60
2023-04-17T08:54:27.656Z,15.43
2023-04-17T08:56:57.899Z,15.59
2023-04-17T08:59:26.391Z,15.85
2023-04-17T09:02:08.142Z,15.99
2023-04-17T09:04:42.891Z,16.14
2023-04-17T09:07:15.157Z,16.52
2023-04-17T09:09:55.020Z,16.98
2023-04-17T09:12:37.192Z,16.37
2023-04-17T09:15:21.713Z,16.62
2023-04-17T09:17:49.841Z,16.44
2023-04-17T09:20:20.872Z,16.08
2023-04-17T09:22:50.261Z,16.64
2023-04-17T09:25:20.739Z,17.05
2023-04-17T09:27:48.872Z,16.60
2023-04-17T09:30:17.698Z,16.57
2023-04-17T09:32:45.919Z,16.80
2023-04-17T09:35:26.076Z,16.98
2023-04-17T09:37:54.787Z,17.13
2023-04-17T09:40:25.200Z,17.20
2023-04-17T09:43:07.491Z,17.30
2023-04-17T09:45:40.692Z,17.29
2023-04-17T09:48:14.617Z,17.36
2023-04-17T09:50:42.754Z,17.75
2023-04-17T09:53:23.997Z,17.69
2023-04-17T09:55:53.447Z,17.89
2023-04-17T09:58:20.953Z,17.78
2023-04-17T10:00:48.940Z,18.14
2023-04-17T10:03:18.045Z,18.18
2023-04-17T10:05:46.134Z,17.74
2023-04-17T10:08:13.880Z,17.83
2023-04-17T10:10:42.582Z,18.05
2023-04-17T10:13:11.644Z,18.03
2023-04-17T10:15:40.579Z,18.07
2023-04-17T10:18:28.110Z,17.88
2023-04-17T10:20:57.308Z,17.67
2023-04-17T10:23:34.900Z,18.06
2023-04-17T10:26:28.198Z,18.11
2023-04-17T10:28:58.260Z,17.89
2023-04-17T10:32:03.514Z,17.75
2023-04-17T10:34:41.002Z,18.10
2023-04-17T10:37:15.711Z,18.08
2023-04-17T10:40:02.336Z,17.70
2023-04-17T10:42:30.708Z,17.72
2023-04-17T10:45:00.200Z,17.66
2023-04-17T10:47:36.332Z,18.20
2023-04-17T10:50:09.733Z,18.17
2023-04-17T10:52:39.415Z,18.12
2023-04-17T10:55:17.873Z,18.24
2023-04-17T10:58:04.998Z,18.57
2023-04-17T11:00:39.544Z,18.80
2023-04-17T11:03:07.681Z,18.49
2023-04-17T11:05:36.912Z,18.77
2023-04-17T11:08:05.173Z,18.84
2023-04-17T11:10:36.305Z,18.86
2023-04-17T11:13:04.113Z,18.73
2023-04-17T11:15:34.645Z,18.77
2023-04-17T11:18:03.218Z,18.94
2023-04-17T11:20:33.387Z,19.04
2023-04-17T11:23:02.620Z,19.24
2023-04-17T11:25:32.002Z,19.49
2023-04-17T11:28:02.249Z,19.56
2023-04-17T11:30:31.800Z,19.55
2023-04-17T11:33:01.309Z,19.71
2023-04-17T11:35:36.697Z,19.32
2023-04-17T11:38:25.729Z,19.68
2023-04-17T11:40:57.086Z,19.49
2023-04-17T11:43:25.187Z,19.41
2023-04-17T11:45:56.183Z,19.77
2023-04-17T11:48:50.709Z,19.22
2023-04-17T11:51:19.443Z,19.64
2023-04-17T11:53:48.629Z,19.65
2023-04-17T11:56:16.216Z,19.64
2023-04-17T11:58:55.927Z,19.88
2023-04-17T12:01:28.281Z,19.90
2023-04-17T12:03:58.877Z,20.10
2023-04-17T12:06:37.644Z,19.85
2023-04-17T12:09:07.343Z,20.22
2023-04-17T12:11:35.303Z,20.26
2023-04-17T12:14:07.074Z,20.37
2023-04-17T12:16:34.839Z,20.70
2023-04-17T12:19:02.607Z,20.88
2023-04-17T12:21:30.604Z,20.59
2023-04-17T12:23:58.401Z,20.91
2023-04-17T12:26:26.567Z,20.93
2023-04-17T12:28:54.109Z,21.08
2023-04-17T12:31:21.914Z,21.21
2023-04-17T12:33:49.369Z,21.43
2023-04-17T12:36:17.369Z,21.94
2023-04-17T12:38:45.182Z,21.80
2023-04-17T12:41:13.437Z,21.75
2023-04-17T12:43:42.003Z,21.95
2023-04-17T12:46:09.839Z,21.87
2023-04-17T12:48:38.175Z,22.22
2023-04-17T12:51:06.010Z,22.40
2023-04-17T12:53:33.807Z,22.33
2023-04-17T12:56:03.952Z,22.33
2023-04-17T12:58:31.584Z,22.40
2023-04-17T13:00:59.434Z,22.59
2023-04-17T13:03:27.771Z,22.35
2023-04-17T13:05:55.972Z,22.32
2023-04-17T13:08:24.602Z,22.64
2023-04-17T13:10:56.764Z,22.38
2023-04-17T13:13:27.021Z,21.95
2023-04-17T13:15:54.745Z,22.58
2023-04-17T13:18:22.436Z,22.30
2023-04-17T13:20:50.583Z,21.95
2023-04-17T13:23:19.179Z,22.26
2023-04-17T13:25:47.486Z,22.43
2023-04-17T13:28:15.211Z,22.55
2023-04-17T13:30:44.220Z,22.21
2023-04-17T13:33:11.910Z,22.50
2023-04-17T13:35:42.274Z,21.91
2023-04-17T13:38:11.075Z,21.79
2023-04-17T13:40:39.757Z,22.02
2023-04-17T13:43:09.114Z,21.65
2023-04-17T13:45:36.850Z,21.92
2023-04-17T13:48:04.906Z,22.03
2023-04-17T13:50:33.443Z,22.41
2023-04-17T13:53:02.540Z,22.56
2023-04-17T13:55:30.644Z,22.48
2023-04-17T13:57:58.899Z,21.97
2023-04-17T14:00:27.073Z,21.98
2023-04-17T14:02:54.762Z,21.83
2023-04-17T14:05:23.291Z,22.01
2023-04-17T14:07:53.500Z,22.06
2023-04-17T14:10:22.146Z,22.13
2023-04-17T14:12:54.697Z,21.88
2023-04-17T14:15:24.154Z,21.45
2023-04-17T14:17:51.850Z,20.86
2023-04-17T14:20:20.398Z,20.82
2023-04-17T14:22:48.180Z,20.57
2023-04-17T14:25:16.041Z,20.68
2023-04-17T14:27:44.081Z,20.81
2023-04-17T14:30:16.344Z,21.04
2023-04-17T14:32:44.669Z,21.36
2023-04-17T14:35:13.411Z,21.07
2023-04-17T14:37:42.569Z,20.27
2023-04-17T14:40:11.925Z,20.44
2023-04-17T14:45:15.496Z,20.69
2023-04-17T14:47:44.280Z,20.78
2023-04-17T14:50:12.814Z,20.70
2023-04-17T14:52:42.950Z,20.32
2023-04-17T14:55:14.238Z,19.96
2023-04-17T14:57:42.238Z,19.70
2023-04-17T15:00:10.355Z,19.44
2023-04-17T15:02:42.572Z,19.48
2023-04-17T15:05:11.569Z,19.26
2023-04-17T15:07:39.494Z,19.07
2023-04-17T15:10:09.168Z,19.07
2023-04-17T15:12:37.510Z,18.86
2023-04-17T15:15:13.453Z,18.86
2023-04-17T15:17:45.358Z,18.74
2023-04-17T15:20:13.519Z,18.56
2023-04-17T15:22:41.963Z,18.58
2023-04-17T15:25:09.931Z,18.50
2023-04-17T15:27:37.885Z,18.35
2023-04-17T15:30:09.398Z,18.19
2023-04-17T15:32:37.876Z,18.26
2023-04-17T15:35:07.399Z,18.19
2023-04-17T15:37:36.473Z,18.14
2023-04-17T15:40:05.660Z,18.20
2023-04-17T15:42:34.403Z,18.03
2023-04-17T15:45:03.116Z,18.04
2023-04-17T15:47:32.922Z,17.90
2023-04-17T15:50:01.498Z,17.87
2023-04-17T15:52:29.621Z,17.79
2023-04-17T15:55:00.775Z,17.79
2023-04-17T15:57:28.599Z,17.59
2023-04-17T15:59:57.920Z,17.60
2023-04-17T16:02:28.682Z,17.39
2023-04-17T16:04:57.841Z,17.48
2023-04-17T16:07:25.760Z,17.33
2023-04-17T16:10:03.506Z,17.32
2023-04-17T16:12:32.251Z,17.25
2023-04-17T16:15:00.922Z,17.36
2023-04-17T16:17:29.696Z,17.32
2023-04-17T16:19:58.696Z,17.27
2023-04-17T16:22:28.136Z,17.22
2023-04-17T16:24:55.978Z,17.14
2023-04-17T16:27:23.531Z,17.07
2023-04-17T16:29:51.834Z,17.06
2023-04-17T16:32:24.276Z,16.93
2023-04-17T16:34:52.589Z,17.01
2023-04-17T16:37:21.678Z,17.00
2023-04-17T16:39:50.717Z,16.89
2023-04-17T16:42:23.285Z,16.71
2023-04-17T16:44:53.807Z,16.78
2023-04-17T16:47:21.638Z,16.75
2023-04-17T16:49:49.454Z,16.70
2023-04-17T16:52:17.242Z,16.56
2023-04-17T16:54:46.012Z,16.59
2023-04-17T16:57:13.912Z,16.57
2023-04-17T16:59:41.966Z,16.61
2023-04-17T17:02:10.447Z,16.52
2023-04-17T17:04:39.889Z,16.41
2023-04-17T17:07:08.448Z,16.41
2023-04-17T17:09:36.928Z,16.36
2023-04-17T17:12:05.006Z,16.19
2023-04-17T17:14:34.009Z,16.15
2023-04-17T17:17:04.083Z,16.16
2023-04-17T17:19:33.641Z,16.14
2023-04-17T17:22:01.947Z,16.13
2023-04-17T17:24:29.952Z,16.09
2023-04-17T17:26:57.654Z,15.99
2023-04-17T17:29:25.525Z,16.02
2023-04-17T17:31:53.552Z,15.97
2023-04-17T17:34:26.721Z,16.05
2023-04-17T17:36:55.604Z,15.95
2023-04-17T17:39:23.936Z,15.99
2023-04-17T17:41:52.020Z,15.94
2023-04-17T17:44:19.755Z,15.85
2023-04-17T17:46:48.066Z,15.85
2023-04-17T17:49:16.791Z,15.75
2023-04-17T17:51:45.044Z,15.82
2023-04-17T17:54:13.449Z,15.79
2023-04-17T17:56:41.750Z,15.72
2023-04-17T17:59:09.538Z,15.74
2023-04-17T18:01:38.209Z,15.81
2023-04-17T18:04:06.297Z,15.84
2023-04-17T18:06:34.633Z,15.76
2023-04-17T18:09:02.963Z,15.65
2023-04-17T18:11:31.838Z,15.72
2023-04-17T18:14:00.867Z,15.82
2023-04-17T18:16:33.124Z,15.88
2023-04-17T18:19:03.864Z,15.86
2023-04-17T18:21:31.866Z,15.83
2023-04-17T18:24:00.610Z,15.70
2023-04-17T18:26:28.914Z,15.71
2023-04-17T18:28:56.762Z,15.74
2023-04-17T18:31:25.502Z,15.65
2023-04-17T18:33:53.538Z,15.62
2023-04-17T18:36:23.150Z,15.73
2023-04-17T18:38:51.506Z,15.74
2023-04-17T18:41:20.908Z,15.73
2023-04-17T18:43:50.404Z,15.71
2023-04-17T18:46:20.315Z,15.73
2023-04-17T18:49:13.774Z,15.72
2023-04-17T18:51:45.689Z,15.71
2023-04-17T18:54:15.698Z,15.71
2023-04-17T18:56:44.149Z,15.55
2023-04-17T18:59:12.560Z,15.62
2023-04-17T19:01:43.263Z,15.50
2023-04-17T19:04:12.793Z,15.38
2023-04-17T19:06:41.322Z,15.43
2023-04-17T19:09:10.452Z,15.36
2023-04-17T19:11:39.467Z,15.27
2023-04-17T19:14:08.100Z,15.40
2023-04-17T19:16:36.513Z,15.32
2023-04-17T19:19:05.697Z,15.35
2023-04-17T19:21:33.577Z,15.37
2023-04-17T19:24:04.209Z,15.34
2023-04-17T19:26:33.974Z,15.42
2023-04-17T19:29:03.506Z,15.42
2023-04-17T19:31:33.294Z,15.40
2023-04-17T19:34:01.334Z,15.23
2023-04-17T19:36:29.315Z,15.25
2023-04-17T19:38:59.711Z,15.21
2023-04-17T19:41:28.062Z,15.24
2023-04-17T19:43:56.206Z,15.24
2023-04-17T19:46:24.187Z,15.11
2023-04-17T19:48:52.777Z,15.09
2023-04-17T19:51:20.920Z,14.94
2023-04-17T19:53:48.508Z,14.95
2023-04-17T19:56:16.599Z,14.96
2023-04-17T19:58:44.607Z,14.78
2023-04-17T20:01:12.483Z,14.68
2023-04-17T20:03:42.360Z,14.84
2023-04-17T20:06:10.950Z,14.63
2023-04-17T20:08:40.238Z,14.62
2023-04-17T20:11:12.271Z,14.84
2023-04-17T20:13:42.154Z,14.75
2023-04-17T20:16:10.403Z,14.75
2023-04-17T20:18:38.577Z,14.67
2023-04-17T20:21:06.724Z,14.66
2023-04-17T20:23:34.521Z,14.63
2023-04-17T20:26:03.865Z,14.55
2023-04-17T20:28:31.754Z,14.59
2023-04-17T20:30:59.753Z,14.49
2023-04-17T20:33:28.008Z,14.51
2023-04-17T20:35:56.182Z,14.43
2023-04-17T20:38:24.715Z,14.52
2023-04-17T20:40:52.585Z,14.37
2023-04-17T20:43:21.302Z,14.39
2023-04-17T20:45:50.646Z,14.32
2023-04-17T20:48:19.612Z,14.38
2023-04-17T20:50:47.728Z,14.24
2023-04-17T20:53:15.848Z,14.28
2023-04-17T20:55:43.692Z,14.21
2023-04-17T20:58:11.602Z,14.24
2023-04-17T21:00:54.048Z,14.09
2023-04-17T21:03:26.320Z,14.02
2023-04-17T21:05:54.911Z,14.20
2023-04-17T21:08:29.960Z,14.14
2023-04-17T21:10:58.306Z,14.10
2023-04-17T21:13:30.976Z,14.06
2023-04-17T21:15:58.988Z,13.97
2023-04-17T21:18:30.041Z,14.08
2023-04-17T21:20:57.741Z,14.02
2023-04-17T21:23:25.526Z,13.91
2023-04-17T21:25:55.100Z,13.98
2023-04-17T21:28:23.560Z,13.90
2023-04-17T21:30:52.501Z,13.76
2023-04-17T21:33:20.938Z,13.98
2023-04-17T21:35:48.632Z,13.97
2023-04-17T21:38:17.148Z,13.77
2023-04-17T21:43:15.884Z,13.78
2023-04-17T21:45:44.040Z,13.83
2023-04-17T21:48:12.288Z,13.85
2023-04-17T21:50:41.392Z,13.72
2023-04-17T21:53:09.688Z,13.67
2023-04-17T21:55:38.674Z,13.69
2023-04-17T21:58:09.322Z,13.68
2023-04-17T22:00:38.080Z,13.66
2023-04-17T22:03:06.077Z,13.48
2023-04-17T22:05:35.351Z,13.47
2023-04-17T22:08:03.711Z,13.56
2023-04-17T22:10:32.129Z,13.36
2023-04-17T22:13:00.034Z,13.48
2023-04-17T22:15:28.319Z,13.47
2023-04-17T22:17:56.103Z,13.36
2023-04-17T22:20:24.423Z,13.29
2023-04-17T22:22:53.898Z,13.45
2023-04-17T22:25:21.561Z,13.49
2023-04-17T22:27:49.393Z,13.40
2023-04-17T22:30:17.090Z,13.54
2023-04-17T22:32:45.186Z,13.39
2023-04-17T22:35:14.038Z,13.30
2023-04-17T22:37:41.730Z,13.41
2023-04-17T22:40:09.862Z,13.31
2023-04-17T22:42:37.549Z,13.23
2023-04-17T22:45:06.222Z,13.22
2023-04-17T22:47:33.785Z,13.04
2023-04-17T22:50:02.865Z,13.20
2023-04-17T22:52:30.798Z,13.17
2023-04-17T22:54:58.584Z,13.22
2023-04-17T22:57:26.756Z,12.96
2023-04-17T22:59:54.439Z,12.84
2023-04-17T23:02:22.125Z,12.99
2023-04-17T23:04:49.977Z,12.97
2023-04-17T23:07:17.634Z,12.81
2023-04-17T23:09:46.594Z,12.72
2023-04-17T23:12:14.749Z,12.97
2023-04-17T23:14:45.520Z,13.01
2023-04-17T23:17:13.255Z,12.87
2023-04-17T23:19:41.040Z,12.83
2023-04-17T23:22:09.761Z,12.82
2023-04-17T23:24:37.904Z,12.63
2023-04-17T23:27:05.862Z,12.64
2023-04-17T23:29:34.017Z,12.54
2023-04-17T23:32:04.661Z,12.63
2023-04-17T23:34:33.848Z,12.70
2023-04-17T23:37:02.838Z,12.60
2023-04-17T23:39:31.197Z,12.47
2023-04-17T23:42:00.807Z,12.47
2023-04-17T23:44:28.602Z,12.35
2023-04-17T23:46:56.577Z,12.55
2023-04-17T23:49:24.418Z,12.52
2023-04-17T23:51:53.286Z,12.42
2023-04-17T23:54:21.551Z,12.52
2023-04-17T23:56:49.556Z,12.52
2023-04-17T23:59:18.981Z,12.36
